Time;durP1;ratioP1;P1;durP2;ratioP2;P2;SDS_P1;SDS_P2;PMS_P1;PMS_P2;Temp;Humidity;BMP_temperature;BMP_pressure;BME280_temperature;BME280_humidity;BME280_pressure;Samples;Min_cycle;Max_cycle;Signal;HPM_P1;HPM_P2
2022/02/13 00:00:40;;;;;;;4.47;2.50;;;16.20;54.00;;;;;;5053591;28;20225;-67
2022/02/13 00:03:11;;;;;;;2.97;2.30;;;16.10;53.90;;;;;;5053083;28;20217;-67
2022/02/13 00:05:41;;;;;;;3.43;2.37;;;16.10;54.00;;;;;;5061252;28;20210;-67
2022/02/13 00:08:09;;;;;;;4.03;2.70;;;16.10;53.90;;;;;;5054726;28;20213;-67
2022/02/13 00:11:00;;;;;;;4.50;2.13;;;16.10;53.90;;;;;;5055538;28;20229;-67
2022/02/13 00:13:33;;;;;;;3.90;2.50;;;16.10;53.90;;;;;;5059350;28;20686;-67
2022/02/13 00:16:04;;;;;;;3.80;2.93;;;16.10;53.90;;;;;;5028335;28;20628;-67
2022/02/13 00:18:38;;;;;;;5.70;2.30;;;16.10;54.00;;;;;;5058980;28;20962;-67
2022/02/13 00:21:33;;;;;;;3.67;2.37;;;16.10;53.90;;;;;;5059971;28;20198;-67
2022/02/13 00:24:03;;;;;;;3.30;2.37;;;16.10;53.90;;;;;;5046209;28;20213;-67
2022/02/13 00:26:36;;;;;;;3.23;2.60;;;16.10;53.90;;;;;;5053589;28;20889;-67
2022/02/13 00:29:07;;;;;;;3.60;2.70;;;16.10;53.90;;;;;;5061102;28;20798;-67
2022/02/13 00:31:37;;;;;;;3.37;2.57;;;16.10;53.80;;;;;;5039853;28;20201;-67
2022/02/13 00:34:06;;;;;;;2.87;2.47;;;16.10;53.80;;;;;;5032720;28;20214;-67
2022/02/13 00:36:35;;;;;;;3.20;2.70;;;16.10;53.80;;;;;;5060363;28;20205;-67
2022/02/13 00:39:06;;;;;;;2.80;2.50;;;16.10;53.80;;;;;;5054807;28;20238;-67
2022/02/13 00:41:36;;;;;;;2.63;2.03;;;16.10;53.80;;;;;;5061968;28;20224;-66
2022/02/13 00:44:10;;;;;;;2.60;2.27;;;16.10;53.80;;;;;;5046517;28;20240;-67
2022/02/13 00:46:38;;;;;;;4.50;2.83;;;16.00;53.80;;;;;;5060161;28;20193;-66
2022/02/13 00:49:05;;;;;;;3.63;2.57;;;16.00;53.80;;;;;;5055059;28;20226;-66
2022/02/13 00:51:34;;;;;;;3.40;2.07;;;16.00;53.80;;;;;;5063199;28;20649;-66
2022/02/13 00:54:03;;;;;;;3.20;2.23;;;16.00;53.80;;;;;;5046176;28;20853;-66
2022/02/13 00:56:35;;;;;;;3.23;2.90;;;16.00;53.80;;;;;;5051638;28;20208;-66
2022/02/13 00:59:04;;;;;;;5.47;2.60;;;16.00;53.70;;;;;;5048086;28;20237;-67
2022/02/13 01:01:32;;;;;;;3.00;2.20;;;16.00;53.70;;;;;;5045368;28;20213;-66
2022/02/13 01:04:00;;;;;;;4.50;2.70;;;16.00;53.80;;;;;;5061508;28;20828;-66
2022/02/13 01:06:33;;;;;;;3.97;2.57;;;16.00;53.80;;;;;;5070567;28;20203;-66
2022/02/13 01:09:08;;;;;;;2.87;2.50;;;16.00;53.80;;;;;;5060816;28;20276;-67
2022/02/13 01:11:38;;;;;;;4.30;2.53;;;16.00;53.70;;;;;;5059473;28;20534;-67
2022/02/13 01:14:09;;;;;;;3.80;2.43;;;16.00;53.70;;;;;;5041542;28;20236;-66
2022/02/13 01:16:42;;;;;;;2.90;2.20;;;16.00;53.70;;;;;;5058264;28;20209;-66
2022/02/13 01:19:11;;;;;;;2.90;2.60;;;16.00;53.70;;;;;;5038529;28;20221;-66
2022/02/13 01:21:40;;;;;;;4.70;2.47;;;16.00;53.70;;;;;;5046785;28;20205;-66
2022/02/13 01:24:14;;;;;;;2.60;2.40;;;16.00;53.70;;;;;;5063010;28;20216;-67
2022/02/13 01:26:54;;;;;;;3.87;2.33;;;16.00;53.70;;;;;;5045488;28;20218;-66
2022/02/13 01:29:26;;;;;;;3.90;2.47;;;16.00;53.70;;;;;;5063006;28;20640;-66
2022/02/13 01:31:57;;;;;;;3.70;2.30;;;16.00;53.80;;;;;;5049397;28;20202;-66
2022/02/13 01:34:27;;;;;;;4.10;2.57;;;15.90;53.60;;;;;;5048707;28;20217;-66
2022/02/13 01:37:00;;;;;;;3.07;2.60;;;15.90;53.70;;;;;;5065018;28;20615;-66
2022/02/13 01:39:34;;;;;;;3.33;2.77;;;16.00;53.70;;;;;;5057977;28;20343;-67
2022/02/13 01:42:03;;;;;;;3.17;2.60;;;15.90;53.70;;;;;;5057424;28;20234;-67
2022/02/13 01:44:37;;;;;;;3.93;2.70;;;15.90;53.70;;;;;;5060602;28;20201;-66
2022/02/13 01:47:08;;;;;;;3.80;2.13;;;15.90;53.70;;;;;;5040676;28;20198;-66
2022/02/13 01:49:39;;;;;;;3.43;2.43;;;16.00;53.90;;;;;;5043379;28;20213;-66
2022/02/13 01:52:10;;;;;;;6.37;2.60;;;15.90;53.90;;;;;;5062578;28;20263;-67
2022/02/13 01:54:40;;;;;;;5.03;2.60;;;15.90;53.90;;;;;;5045967;28;20741;-67
2022/02/13 01:57:13;;;;;;;3.03;2.43;;;15.90;54.00;;;;;;5056395;28;20697;-66
2022/02/13 01:59:42;;;;;;;2.97;2.30;;;15.90;54.00;;;;;;5045052;28;20225;-66
2022/02/13 02:02:13;;;;;;;3.10;2.10;;;15.90;54.50;;;;;;5050701;28;20232;-66
2022/02/13 02:04:50;;;;;;;4.00;2.87;;;15.90;53.90;;;;;;5047762;28;20193;-67
2022/02/13 02:07:18;;;;;;;3.83;2.40;;;15.90;53.90;;;;;;5047772;28;20796;-67
2022/02/13 02:10:10;;;;;;;2.80;2.30;;;15.90;53.90;;;;;;5062776;28;20867;-67
2022/02/13 02:12:45;;;;;;;4.03;2.50;;;15.90;53.90;;;;;;5045281;28;20202;-66
2022/02/13 02:15:17;;;;;;;4.90;2.57;;;15.90;53.90;;;;;;5055394;28;20210;-67
2022/02/13 02:17:47;;;;;;;3.87;2.43;;;15.90;53.90;;;;;;5045193;28;20241;-67
2022/02/13 02:20:22;;;;;;;3.97;2.87;;;15.90;53.90;;;;;;5048765;28;20709;-67
2022/02/13 02:22:55;;;;;;;2.83;2.30;;;15.90;53.90;;;;;;5057695;28;20206;-67
2022/02/13 02:25:26;;;;;;;2.73;2.40;;;15.90;53.80;;;;;;5044589;28;24408;-67
2022/02/13 02:28:01;;;;;;;2.53;2.33;;;15.90;53.90;;;;;;5063461;28;20193;-66
2022/02/13 02:30:33;;;;;;;2.63;2.17;;;15.80;53.80;;;;;;5057691;28;20545;-66
2022/02/13 02:33:01;;;;;;;2.57;1.97;;;15.80;53.80;;;;;;5058949;28;20213;-66
2022/02/13 02:35:33;;;;;;;3.73;2.43;;;15.90;53.80;;;;;;5061922;28;20267;-66
2022/02/13 02:38:05;;;;;;;2.63;2.27;;;15.80;53.80;;;;;;5058488;28;20413;-67
2022/02/13 02:40:38;;;;;;;3.00;2.33;;;15.90;53.80;;;;;;5031545;28;20213;-67
2022/02/13 02:43:08;;;;;;;3.77;2.33;;;15.80;53.70;;;;;;5059023;28;20662;-67
2022/02/13 02:45:36;;;;;;;3.30;2.10;;;15.80;53.70;;;;;;5055163;28;20197;-67
2022/02/13 02:48:04;;;;;;;3.67;2.57;;;15.80;53.70;;;;;;5057603;28;20195;-67
2022/02/13 02:50:33;;;;;;;2.37;2.17;;;15.80;53.80;;;;;;5061366;28;20278;-67
2022/02/13 02:53:04;;;;;;;2.60;1.90;;;15.80;53.60;;;;;;5066374;28;20208;-66
2022/02/13 02:55:31;;;;;;;3.37;2.20;;;15.80;53.70;;;;;;5049642;28;20202;-67
2022/02/13 02:58:01;;;;;;;3.37;2.40;;;15.80;53.60;;;;;;5052234;28;20197;-66
2022/02/13 03:00:30;;;;;;;3.43;2.30;;;15.80;53.60;;;;;;5060837;28;20228;-67
2022/02/13 03:03:00;;;;;;;3.77;2.37;;;15.80;53.60;;;;;;5070482;28;20646;-67
2022/02/13 03:05:33;;;;;;;4.03;2.20;;;15.80;53.50;;;;;;5055652;28;20201;-67
2022/02/13 03:08:04;;;;;;;5.07;2.93;;;15.80;53.50;;;;;;5067489;28;20202;-67
2022/02/13 03:10:34;;;;;;;2.97;2.33;;;15.80;53.50;;;;;;5065948;28;20772;-67
2022/02/13 03:13:10;;;;;;;4.23;2.20;;;15.80;53.50;;;;;;5051676;28;20198;-68
2022/02/13 03:15:39;;;;;;;4.97;2.43;;;15.80;53.60;;;;;;5072219;28;20205;-67
2022/02/13 03:18:10;;;;;;;5.23;3.20;;;15.80;53.50;;;;;;5066022;28;20607;-68
2022/02/13 03:20:50;;;;;;;3.40;2.37;;;15.80;53.50;;;;;;5036255;28;20209;-68
2022/02/13 03:23:20;;;;;;;3.07;2.37;;;15.80;54.10;;;;;;5049830;28;20224;-68
2022/02/13 03:25:52;;;;;;;3.90;2.30;;;15.80;53.50;;;;;;5062647;28;20209;-67
2022/02/13 03:28:24;;;;;;;3.33;2.30;;;15.80;53.50;;;;;;5063743;28;20264;-67
2022/02/13 03:30:59;;;;;;;3.43;2.33;;;15.70;53.50;;;;;;5065215;28;20208;-67
2022/02/13 03:33:28;;;;;;;3.57;2.33;;;15.80;53.50;;;;;;5063917;28;20292;-67
2022/02/13 03:36:00;;;;;;;4.67;2.50;;;15.70;53.40;;;;;;5066984;28;20195;-68
2022/02/13 03:38:30;;;;;;;3.67;2.30;;;15.70;53.50;;;;;;5071819;28;20286;-67
2022/02/13 03:41:00;;;;;;;2.30;2.10;;;15.70;53.40;;;;;;5062436;28;20226;-68
2022/02/13 03:43:33;;;;;;;2.93;2.23;;;15.70;53.40;;;;;;5064757;28;20194;-68
2022/02/13 03:46:02;;;;;;;4.03;2.40;;;15.70;53.40;;;;;;5049359;28;20190;-67
2022/02/13 03:48:34;;;;;;;2.97;2.47;;;15.70;53.40;;;;;;5049910;28;20218;-68
2022/02/13 03:51:05;;;;;;;3.00;2.10;;;15.70;53.40;;;;;;5063532;28;20648;-67
2022/02/13 03:53:34;;;;;;;2.37;1.90;;;15.70;53.40;;;;;;5066269;28;20202;-67
2022/02/13 03:56:05;;;;;;;4.07;2.53;;;15.70;53.50;;;;;;5065601;28;20198;-67
2022/02/13 03:58:33;;;;;;;2.20;1.97;;;15.70;53.40;;;;;;5054697;28;20200;-67
2022/02/13 04:01:04;;;;;;;4.40;1.90;;;15.70;53.40;;;;;;5062910;28;20563;-67
2022/02/13 04:03:56;;;;;;;3.97;2.50;;;15.70;53.40;;;;;;5048908;28;20687;-68
2022/02/13 04:06:27;;;;;;;2.63;2.27;;;15.70;53.40;;;;;;5066935;28;20206;-68
2022/02/13 04:08:56;;;;;;;3.20;1.93;;;15.70;53.40;;;;;;5066280;28;20206;-67
2022/02/13 04:11:26;;;;;;;2.47;2.03;;;15.70;53.30;;;;;;5064432;28;20240;-68
2022/02/13 04:13:54;;;;;;;2.57;1.90;;;15.70;53.40;;;;;;5054893;28;20282;-68
2022/02/13 04:16:24;;;;;;;2.77;2.20;;;15.70;53.40;;;;;;5065788;28;20221;-67
2022/02/13 04:18:53;;;;;;;2.77;2.20;;;15.60;53.30;;;;;;5068090;28;20222;-67
2022/02/13 04:21:29;;;;;;;2.47;1.97;;;15.60;53.30;;;;;;5064473;28;20218;-67
2022/02/13 04:24:04;;;;;;;2.70;2.43;;;15.70;53.30;;;;;;5067097;28;20205;-67
2022/02/13 04:26:31;;;;;;;2.83;2.57;;;15.60;53.20;;;;;;5063812;28;20241;-66
2022/02/13 04:29:01;;;;;;;4.13;2.40;;;15.60;53.10;;;;;;5053257;28;20210;-66
2022/02/13 04:31:36;;;;;;;2.23;1.93;;;15.60;53.10;;;;;;5066436;28;20200;-67
2022/02/13 04:34:07;;;;;;;2.93;2.40;;;15.60;53.10;;;;;;5077508;28;20190;-67
2022/02/13 04:36:39;;;;;;;3.43;2.17;;;15.60;53.10;;;;;;5052234;28;20209;-67
2022/02/13 04:39:08;;;;;;;2.93;2.13;;;15.60;53.10;;;;;;5060222;28;20682;-67
2022/02/13 04:41:37;;;;;;;3.27;1.93;;;15.60;53.10;;;;;;5065593;28;20217;-67
2022/02/13 04:44:09;;;;;;;2.77;2.20;;;15.60;53.10;;;;;;5065767;28;20200;-67
2022/02/13 04:46:42;;;;;;;3.40;2.10;;;15.60;53.10;;;;;;5064845;28;20629;-67
2022/02/13 04:49:15;;;;;;;3.87;2.30;;;15.60;53.00;;;;;;5060932;28;20208;-67
2022/02/13 04:51:47;;;;;;;2.60;2.03;;;15.60;53.00;;;;;;5047450;28;20212;-67
2022/02/13 04:54:18;;;;;;;2.67;1.83;;;15.60;53.00;;;;;;5065383;28;20534;-67
2022/02/13 04:56:51;;;;;;;2.70;2.20;;;15.60;53.00;;;;;;5072955;28;20216;-67
2022/02/13 04:59:20;;;;;;;2.60;2.23;;;15.60;52.90;;;;;;5063235;28;20305;-67
2022/02/13 05:01:52;;;;;;;2.40;2.20;;;15.60;52.90;;;;;;5046183;28;20518;-67
2022/02/13 05:04:22;;;;;;;3.20;2.53;;;15.60;52.90;;;;;;5064169;28;20205;-67
2022/02/13 05:06:52;;;;;;;2.70;2.20;;;15.60;53.00;;;;;;5065583;28;20219;-67
2022/02/13 05:09:25;;;;;;;2.53;2.30;;;15.50;52.80;;;;;;5061507;28;20205;-67
2022/02/13 05:11:56;;;;;;;2.30;2.00;;;15.50;52.90;;;;;;5058787;28;20206;-67
2022/02/13 05:14:29;;;;;;;2.60;1.93;;;15.50;52.80;;;;;;5060116;28;20218;-67
2022/02/13 05:17:03;;;;;;;3.43;2.33;;;15.50;52.80;;;;;;5064099;28;20287;-68
2022/02/13 05:19:34;;;;;;;3.20;2.10;;;15.50;53.30;;;;;;5046232;28;20205;-67
2022/02/13 05:22:06;;;;;;;3.67;2.40;;;15.50;52.60;;;;;;5048787;28;20637;-67
2022/02/13 05:24:39;;;;;;;2.47;2.10;;;15.50;52.60;;;;;;5065217;28;20202;-67
2022/02/13 05:27:10;;;;;;;2.37;2.10;;;15.50;52.60;;;;;;5059195;28;20210;-67
2022/02/13 05:29:41;;;;;;;2.40;2.20;;;15.50;52.50;;;;;;5047611;28;20224;-67
2022/02/13 05:32:11;;;;;;;3.03;2.67;;;15.50;52.50;;;;;;5056883;28;20219;-67
2022/02/13 05:34:46;;;;;;;3.77;2.27;;;15.50;52.50;;;;;;5063376;28;20204;-67
2022/02/13 05:37:18;;;;;;;2.93;2.60;;;15.50;52.50;;;;;;5059848;28;20201;-66
2022/02/13 05:39:53;;;;;;;2.60;2.00;;;15.50;52.50;;;;;;5056172;28;20304;-66
2022/02/13 05:42:26;;;;;;;2.37;2.17;;;15.40;52.40;;;;;;5048747;28;20194;-67
2022/02/13 05:44:57;;;;;;;2.90;2.60;;;15.50;52.40;;;;;;5066965;28;20201;-68
2022/02/13 05:47:29;;;;;;;2.77;2.33;;;15.50;52.40;;;;;;5044998;28;20236;-67
2022/02/13 05:50:00;;;;;;;2.80;2.50;;;15.50;52.40;;;;;;5040309;28;20216;-67
2022/02/13 05:52:34;;;;;;;3.10;1.80;;;15.40;52.40;;;;;;5054792;28;20205;-67
2022/02/13 05:55:06;;;;;;;2.33;1.90;;;15.40;52.40;;;;;;5065770;28;20202;-67
2022/02/13 05:57:42;;;;;;;2.77;2.17;;;15.40;52.30;;;;;;5066327;28;20206;-67
2022/02/13 06:00:14;;;;;;;2.50;2.30;;;15.40;52.30;;;;;;5049103;28;20217;-66
2022/02/13 06:02:48;;;;;;;2.80;2.20;;;15.40;52.30;;;;;;5029685;28;20206;-67
2022/02/13 06:05:17;;;;;;;2.20;2.00;;;15.50;52.30;;;;;;5064938;28;20309;-67
2022/02/13 06:07:50;;;;;;;3.07;2.27;;;15.40;52.30;;;;;;5049676;28;20202;-67
2022/02/13 06:10:20;;;;;;;3.20;2.40;;;15.40;52.30;;;;;;5067799;28;20204;-67
2022/02/13 06:12:48;;;;;;;3.27;2.50;;;15.40;52.30;;;;;;5065284;28;20549;-67
2022/02/13 06:15:21;;;;;;;2.17;1.90;;;15.40;52.30;;;;;;5033155;28;20213;-67
2022/02/13 06:17:51;;;;;;;2.73;2.10;;;15.40;52.40;;;;;;5069544;28;20237;-67
2022/02/13 06:20:21;;;;;;;2.47;2.10;;;15.40;52.40;;;;;;5069694;28;20221;-67
2022/02/13 06:22:52;;;;;;;2.83;2.40;;;15.40;52.40;;;;;;5070564;28;20211;-67
2022/02/13 06:25:22;;;;;;;2.77;2.00;;;15.40;52.40;;;;;;5031426;28;20287;-67
2022/02/13 06:27:51;;;;;;;2.33;1.97;;;15.40;52.40;;;;;;5056793;28;20228;-67
2022/02/13 06:30:24;;;;;;;3.33;1.90;;;15.40;52.40;;;;;;5074775;28;20653;-67
2022/02/13 06:32:59;;;;;;;3.10;1.87;;;15.40;52.40;;;;;;5080562;28;20207;-67
2022/02/13 06:35:32;;;;;;;2.37;2.17;;;15.40;52.50;;;;;;5075433;28;20843;-67
2022/02/13 06:38:04;;;;;;;2.17;1.73;;;15.40;52.50;;;;;;5054362;28;20225;-67
2022/02/13 06:40:40;;;;;;;3.47;2.60;;;15.40;52.40;;;;;;5060188;28;20213;-67
2022/02/13 06:43:10;;;;;;;2.53;2.33;;;15.40;52.40;;;;;;5069757;28;20650;-67
2022/02/13 06:45:41;;;;;;;1.73;1.63;;;15.40;52.50;;;;;;5071304;28;20564;-67
2022/02/13 06:48:09;;;;;;;2.50;2.13;;;15.30;52.50;;;;;;5050938;28;20201;-67
2022/02/13 06:50:40;;;;;;;2.80;2.40;;;15.30;52.40;;;;;;5039140;28;20216;-67
2022/02/13 06:53:10;;;;;;;2.57;2.37;;;15.30;52.40;;;;;;5072927;28;20515;-67
2022/02/13 06:55:40;;;;;;;2.13;1.93;;;15.40;52.50;;;;;;5068462;28;20205;-67
2022/02/13 06:58:08;;;;;;;2.67;1.90;;;15.40;52.50;;;;;;5075348;28;20209;-67
2022/02/13 07:00:40;;;;;;;3.10;2.60;;;15.30;52.50;;;;;;5067489;28;20210;-66
2022/02/13 07:03:12;;;;;;;2.67;2.37;;;15.30;52.50;;;;;;5048596;28;20205;-67
2022/02/13 07:05:41;;;;;;;2.03;1.70;;;15.30;52.50;;;;;;5059042;28;20698;-67
2022/02/13 07:08:12;;;;;;;2.90;2.40;;;15.30;52.50;;;;;;5045673;28;20210;-66
2022/02/13 07:10:42;;;;;;;2.17;1.97;;;15.30;52.60;;;;;;5059819;28;20205;-66
2022/02/13 07:13:10;;;;;;;2.73;2.27;;;15.30;52.50;;;;;;5061203;28;20672;-67
2022/02/13 07:15:43;;;;;;;3.43;1.60;;;15.30;52.50;;;;;;5065842;28;20209;-67
2022/02/13 07:18:15;;;;;;;3.07;2.30;;;15.40;52.60;;;;;;5070179;28;20592;-67
2022/02/13 07:21:01;;;;;;;3.47;2.10;;;15.30;52.60;;;;;;5056926;28;20730;-67
2022/02/13 07:23:33;;;;;;;3.90;2.50;;;15.30;52.50;;;;;;5065633;28;20197;-66
2022/02/13 07:26:02;;;;;;;2.43;2.00;;;15.30;52.40;;;;;;5064306;28;20221;-66
2022/02/13 07:31:22;;;;;;;2.37;2.13;;;15.30;52.30;;;;;;5066010;28;20523;-67
2022/02/13 07:33:51;;;;;;;2.30;1.80;;;15.30;52.30;;;;;;5066283;28;20639;-67
2022/02/13 07:36:23;;;;;;;2.87;2.30;;;15.30;52.30;;;;;;5059869;28;20220;-68
2022/02/13 07:38:53;;;;;;;3.20;1.80;;;15.30;52.20;;;;;;5049271;28;20221;-67
2022/02/13 07:41:29;;;;;;;2.63;2.30;;;15.30;52.20;;;;;;5063002;28;20466;-67
2022/02/13 07:44:13;;;;;;;3.60;2.47;;;15.30;52.20;;;;;;5053247;28;20210;-66
2022/02/13 07:47:08;;;;;;;3.57;2.67;;;15.30;52.10;;;;;;5067059;28;20225;-67
2022/02/13 07:49:52;;;;;;;4.50;2.30;;;15.40;52.00;;;;;;5040023;28;20198;-67
2022/02/13 07:52:22;;;;;;;2.93;2.23;;;15.40;52.00;;;;;;5070733;28;20194;-67
2022/02/13 07:54:57;;;;;;;2.90;2.20;;;15.30;51.90;;;;;;5062716;28;20247;-67
2022/02/13 07:57:27;;;;;;;2.57;2.37;;;15.40;52.00;;;;;;5063085;28;20224;-66
2022/02/13 07:59:59;;;;;;;2.23;2.03;;;15.30;51.80;;;;;;5067294;28;20196;-66
2022/02/13 08:02:41;;;;;;;4.07;1.80;;;15.30;51.80;;;;;;5057055;28;20314;-68
2022/02/13 08:05:18;;;;;;;4.27;2.33;;;15.30;51.80;;;;;;5060938;28;20197;-68
2022/02/13 08:07:48;;;;;;;4.10;2.30;;;15.30;51.70;;;;;;5066315;28;20213;-68
2022/02/13 08:10:28;;;;;;;3.00;2.13;;;15.30;51.70;;;;;;5062427;28;20213;-67
2022/02/13 08:13:00;;;;;;;3.17;2.10;;;15.30;51.70;;;;;;5066198;28;20647;-68
2022/02/13 08:15:31;;;;;;;4.30;2.97;;;15.30;51.70;;;;;;5044979;28;20229;-68
2022/02/13 08:18:13;;;;;;;4.00;2.30;;;15.30;51.60;;;;;;5067569;28;20230;-67
2022/02/13 08:20:43;;;;;;;4.83;2.80;;;15.30;51.90;;;;;;5065743;28;20705;-69
2022/02/13 08:23:15;;;;;;;3.47;2.40;;;15.30;51.70;;;;;;5064361;28;20198;-68
2022/02/13 08:25:45;;;;;;;4.00;2.43;;;15.30;51.80;;;;;;5057751;28;20221;-68
2022/02/13 08:28:17;;;;;;;3.93;2.30;;;15.30;51.70;;;;;;5066104;28;20193;-68
2022/02/13 08:30:49;;;;;;;5.23;2.70;;;15.30;51.80;;;;;;5050035;28;20736;-68
2022/02/13 08:33:18;;;;;;;3.77;2.50;;;15.30;51.90;;;;;;5061449;28;20206;-68
2022/02/13 08:35:49;;;;;;;4.73;2.27;;;15.30;51.90;;;;;;5074797;28;20197;-68
2022/02/13 08:38:19;;;;;;;6.17;2.47;;;15.30;51.80;;;;;;5058184;28;20212;-67
2022/02/13 08:40:52;;;;;;;6.60;2.97;;;15.30;51.80;;;;;;5064500;28;20663;-65
2022/02/13 08:43:21;;;;;;;14.67;3.20;;;15.30;51.90;;;;;;5065639;28;20194;-65
2022/02/13 08:45:50;;;;;;;12.13;3.07;;;15.30;52.10;;;;;;5067502;28;20203;-66
2022/02/13 08:48:34;;;;;;;9.97;2.40;;;15.30;52.20;;;;;;5063983;28;20284;-66
2022/02/13 08:51:09;;;;;;;6.40;2.90;;;15.30;52.30;;;;;;5045641;28;20210;-67
2022/02/13 08:53:38;;;;;;;11.77;2.63;;;15.30;52.60;;;;;;5029068;28;20229;-68
2022/02/13 08:56:09;;;;;;;6.90;2.50;;;15.30;52.40;;;;;;5054844;28;20205;-66
2022/02/13 08:58:39;;;;;;;6.77;2.83;;;15.30;52.30;;;;;;5059407;28;20194;-66
2022/02/13 09:01:07;;;;;;;4.17;3.07;;;15.30;52.20;;;;;;5059020;28;20222;-67
2022/02/13 09:03:36;;;;;;;5.43;2.87;;;15.30;52.10;;;;;;5047195;28;20551;-67
2022/02/13 09:06:11;;;;;;;7.27;2.90;;;15.40;52.60;;;;;;5062542;28;20205;-66
2022/02/13 09:08:41;;;;;;;7.20;4.00;;;15.40;53.40;;;;;;5061465;28;20651;-67
2022/02/13 09:11:10;;;;;;;5.87;3.97;;;15.40;53.10;;;;;;5055683;28;20220;-68
2022/02/13 09:13:43;;;;;;;7.50;4.13;;;15.40;53.10;;;;;;5036497;28;20631;-66
2022/02/13 09:16:15;;;;;;;3.50;3.13;;;15.40;53.40;;;;;;5060107;28;20213;-66
2022/02/13 09:18:46;;;;;;;6.43;3.40;;;15.40;53.70;;;;;;5060999;28;20232;-65
2022/02/13 09:21:21;;;;;;;3.77;3.10;;;15.50;53.50;;;;;;5060339;28;20214;-66
2022/02/13 09:23:55;;;;;;;8.90;3.33;;;15.50;53.30;;;;;;5064862;28;20185;-66
2022/02/13 09:26:24;;;;;;;4.57;2.80;;;15.50;53.00;;;;;;5030729;28;20209;-66
2022/02/13 09:29:00;;;;;;;3.43;2.30;;;15.50;52.80;;;;;;5063953;28;20205;-66
2022/02/13 09:31:30;;;;;;;3.43;2.63;;;15.50;52.50;;;;;;5064250;28;20818;-70
2022/02/13 09:34:04;;;;;;;3.67;2.40;;;15.60;52.40;;;;;;5045522;28;20237;-66
2022/02/13 09:36:40;;;;;;;4.90;2.23;;;15.60;52.60;;;;;;5060426;28;20558;-65
2022/02/13 09:39:09;;;;;;;4.53;2.90;;;15.70;52.30;;;;;;5050834;28;20647;-65
2022/02/13 09:41:41;;;;;;;3.30;2.03;;;15.90;52.40;;;;;;5064075;28;20809;-66
2022/02/13 09:44:11;;;;;;;5.53;2.40;;;16.10;52.50;;;;;;5062174;28;20208;-65
2022/02/13 09:46:44;;;;;;;14.63;2.23;;;16.40;52.30;;;;;;5033556;28;20227;-66
2022/02/13 09:49:20;;;;;;;3.30;2.00;;;16.70;52.30;;;;;;5052130;28;20200;-68
2022/02/13 09:51:50;;;;;;;4.30;2.43;;;16.90;53.50;;;;;;5038596;28;20224;-68
2022/02/13 09:54:21;;;;;;;7.10;2.10;;;17.10;52.80;;;;;;5061171;28;20246;-66
2022/02/13 09:56:50;;;;;;;5.17;1.83;;;17.20;52.20;;;;;;5032177;28;20209;-64
2022/02/13 09:59:18;;;;;;;5.67;1.93;;;17.50;51.70;;;;;;5053384;28;20209;-65
2022/02/13 10:01:45;;;;;;;3.50;2.07;;;17.70;51.20;;;;;;5039981;28;20237;-65
2022/02/13 10:04:13;;;;;;;3.43;1.90;;;17.90;50.90;;;;;;5055373;28;20233;-64
2022/02/13 10:06:45;;;;;;;2.40;1.70;;;18.00;50.40;;;;;;5053965;28;20646;-68
2022/02/13 10:09:13;;;;;;;4.10;1.70;;;18.20;50.20;;;;;;5053484;28;20592;-69
2022/02/13 10:11:45;;;;;;;3.37;1.30;;;18.40;50.00;;;;;;5055583;28;20218;-69
2022/02/13 10:14:17;;;;;;;4.57;1.80;;;18.50;49.70;;;;;;5057182;28;20292;-69
2022/02/13 10:16:52;;;;;;;3.57;1.70;;;18.70;49.40;;;;;;5063072;28;20197;-65
2022/02/13 10:19:28;;;;;;;2.63;1.67;;;18.80;49.70;;;;;;5061606;28;20233;-65
2022/02/13 10:22:00;;;;;;;4.43;2.10;;;18.90;48.80;;;;;;5062977;28;20218;-66
2022/02/13 10:24:36;;;;;;;3.77;2.20;;;19.00;48.20;;;;;;5058971;28;20198;-65
2022/02/13 10:27:15;;;;;;;3.23;2.13;;;18.90;48.10;;;;;;5037812;28;20217;-66
2022/02/13 10:29:45;;;;;;;3.90;2.57;;;18.70;48.10;;;;;;5028416;28;20890;-65
2022/02/13 10:32:20;;;;;;;3.00;2.27;;;18.50;48.80;;;;;;5057401;28;20534;-64
2022/02/13 10:35:08;;;;;;;3.60;2.87;;;18.40;48.40;;;;;;5053905;28;20800;-64
2022/02/13 10:38:09;;;;;;;3.40;2.30;;;18.30;49.80;;;;;;5035868;28;20913;-64
2022/02/13 10:40:36;;;;;;;3.17;2.20;;;18.20;49.60;;;;;;5054556;28;20579;-63
2022/02/13 10:43:09;;;;;;;2.80;2.50;;;18.10;50.00;;;;;;5062386;28;20214;-63
2022/02/13 10:45:43;;;;;;;3.40;2.10;;;18.00;50.30;;;;;;5044890;28;20185;-63
2022/02/13 10:48:14;;;;;;;2.77;2.43;;;17.90;50.80;;;;;;5059500;28;20768;-63
2022/02/13 10:50:45;;;;;;;2.33;1.97;;;17.80;50.70;;;;;;5046762;28;20560;-63
2022/02/13 10:53:14;;;;;;;2.83;2.30;;;17.80;50.90;;;;;;5041420;28;20209;-63
2022/02/13 10:56:00;;;;;;;2.60;2.40;;;17.70;51.10;;;;;;5063468;28;20207;-64
2022/02/13 10:58:31;;;;;;;3.47;2.33;;;17.70;51.10;;;;;;5044153;28;20228;-63
2022/02/13 11:01:09;;;;;;;3.40;2.40;;;17.60;51.10;;;;;;5054665;28;20208;-63
2022/02/13 11:03:48;;;;;;;2.70;2.00;;;17.60;51.40;;;;;;5057892;28;20223;-63
2022/02/13 11:06:39;;;;;;;2.63;2.13;;;17.50;51.40;;;;;;5054820;28;20202;-63
2022/02/13 11:09:34;;;;;;;2.50;2.30;;;17.50;51.50;;;;;;5054842;28;20230;-63
2022/02/13 11:12:28;;;;;;;2.53;2.23;;;17.40;51.10;;;;;;5062941;28;20229;-68
2022/02/13 11:15:19;;;;;;;2.80;2.10;;;17.40;51.80;;;;;;5051008;28;20210;-68
2022/02/13 11:17:51;;;;;;;2.27;2.07;;;17.40;54.40;;;;;;5067163;28;20230;-68
2022/02/13 11:20:21;;;;;;;2.60;2.03;;;17.40;55.10;;;;;;5052639;28;20534;-68
2022/02/13 11:22:53;;;;;;;2.73;1.93;;;17.30;54.40;;;;;;5053260;28;20224;-68
2022/02/13 11:25:56;;;;;;;2.10;1.70;;;17.30;54.50;;;;;;5071245;28;20205;-67
2022/02/13 11:28:56;;;;;;;2.77;1.87;;;17.40;54.40;;;;;;5061087;28;20197;-68
2022/02/13 11:31:42;;;;;;;3.57;1.90;;;17.30;54.20;;;;;;5021666;28;20423;-67
2022/02/13 11:34:29;;;;;;;2.40;2.20;;;17.30;54.20;;;;;;5065794;28;20557;-67
2022/02/13 11:37:19;;;;;;;2.50;2.30;;;17.20;54.10;;;;;;5068034;28;20189;-67
2022/02/13 11:39:50;;;;;;;2.03;1.83;;;17.20;54.10;;;;;;5063912;28;20297;-67
2022/02/13 11:42:21;;;;;;;5.30;2.80;;;17.20;53.50;;;;;;5031099;28;20858;-68
2022/02/13 11:44:57;;;;;;;4.67;2.77;;;17.20;53.10;;;;;;5048075;28;20277;-66
2022/02/13 11:47:40;;;;;;;2.80;2.50;;;17.20;54.20;;;;;;5032479;28;20221;-65
2022/02/13 11:50:21;;;;;;;7.17;2.27;;;17.10;54.10;;;;;;5047897;28;20217;-67
2022/02/13 11:53:13;;;;;;;4.50;2.60;;;17.10;54.20;;;;;;5050181;28;20636;-67
2022/02/13 11:55:42;;;;;;;4.27;2.83;;;17.10;53.70;;;;;;5069476;28;20224;-68
2022/02/13 11:58:13;;;;;;;4.60;2.87;;;17.10;53.60;;;;;;5050157;28;20911;-68
2022/02/13 12:00:54;;;;;;;5.13;3.00;;;17.00;53.20;;;;;;5063262;28;20765;-65
2022/02/13 12:03:41;;;;;;;3.73;2.80;;;17.10;53.50;;;;;;5043697;28;20656;-66
2022/02/13 12:06:16;;;;;;;3.77;2.53;;;17.10;53.10;;;;;;5068048;28;20694;-65
2022/02/13 12:08:49;;;;;;;4.23;2.83;;;17.00;52.70;;;;;;5050864;28;20210;-65
2022/02/13 12:11:18;;;;;;;3.93;2.60;;;17.00;52.90;;;;;;5064328;28;20285;-65
2022/02/13 12:13:46;;;;;;;4.67;2.77;;;17.00;52.90;;;;;;5049404;28;20236;-64
2022/02/13 12:16:17;;;;;;;4.20;3.50;;;17.00;52.70;;;;;;5069042;28;20202;-67
2022/02/13 12:18:52;;;;;;;4.73;2.60;;;17.00;52.50;;;;;;5065065;28;20229;-67
2022/02/13 12:21:27;;;;;;;2.87;2.60;;;16.90;52.70;;;;;;5047594;28;20197;-65
2022/02/13 12:24:11;;;;;;;4.97;2.23;;;16.90;53.00;;;;;;5049650;28;20657;-65
2022/02/13 12:26:42;;;;;;;3.90;2.70;;;16.90;53.20;;;;;;5064297;28;20600;-66
2022/02/13 12:29:16;;;;;;;3.47;2.53;;;16.90;53.30;;;;;;5061461;28;20197;-65
2022/02/13 12:32:03;;;;;;;3.73;2.63;;;16.90;53.30;;;;;;5060262;28;20581;-68
2022/02/13 12:34:50;;;;;;;3.03;2.27;;;16.90;53.60;;;;;;5048391;28;20202;-68
2022/02/13 12:37:18;;;;;;;3.10;2.27;;;;;;;;;;5040710;28;20205;-67
2022/02/13 12:39:55;;;;;;;2.67;2.47;;;16.90;53.70;;;;;;5063879;28;20269;-67
2022/02/13 12:42:41;;;;;;;3.47;2.30;;;16.90;53.80;;;;;;5066398;28;20249;-65
2022/02/13 12:45:27;;;;;;;2.23;1.90;;;16.80;53.90;;;;;;5054126;28;20221;-65
2022/02/13 12:48:04;;;;;;;3.23;2.50;;;16.80;54.20;;;;;;5065210;28;20434;-65
2022/02/13 12:50:35;;;;;;;2.27;2.07;;;16.90;54.20;;;;;;5046204;28;20221;-67
2022/02/13 12:53:09;;;;;;;3.03;2.30;;;16.90;53.90;;;;;;5066588;28;20224;-68
2022/02/13 12:55:40;;;;;;;3.23;2.63;;;16.80;54.20;;;;;;5046484;28;20219;-65
2022/02/13 12:58:11;;;;;;;2.20;1.77;;;16.80;54.10;;;;;;5035012;28;20213;-65
2022/02/13 13:00:51;;;;;;;2.30;2.10;;;16.80;54.00;;;;;;5048994;28;20212;-67
2022/02/13 13:03:42;;;;;;;3.70;2.53;;;16.80;54.50;;;;;;5064752;28;20245;-68
2022/02/13 13:06:25;;;;;;;2.97;2.23;;;16.90;54.50;;;;;;5040165;28;20213;-68
2022/02/13 13:08:58;;;;;;;3.77;2.20;;;16.80;54.40;;;;;;5053250;28;20280;-67
2022/02/13 13:11:30;;;;;;;3.40;2.10;;;16.90;54.20;;;;;;5066528;28;20218;-65
2022/02/13 13:14:14;;;;;;;3.37;2.27;;;16.80;54.40;;;;;;5042722;28;20244;-65
2022/02/13 13:16:44;;;;;;;3.87;2.07;;;16.80;54.80;;;;;;5068025;28;20198;-68
2022/02/13 13:19:26;;;;;;;2.73;2.40;;;16.80;54.80;;;;;;5059331;28;20260;-67
2022/02/13 13:21:55;;;;;;;2.80;2.27;;;16.80;54.70;;;;;;5061340;28;20566;-68